sensor_id;sensor_type;location;lat;lon;timestamp;P1;durP1;ratioP1;P2;durP2;ratioP2
21848;SDS011;11089;49.852;19.700;2022-12-18T00:00:46;127.07;;;30.88;;
21848;SDS011;11089;49.852;19.700;2022-12-18T00:03:48;97.75;;;26.45;;
21848;SDS011;11089;49.852;19.700;2022-12-18T00:06:49;95.80;;;25.17;;
21848;SDS011;11089;49.852;19.700;2022-12-18T00:09:50;108.13;;;28.33;;
21848;SDS011;11089;49.852;19.700;2022-12-18T00:12:51;95.00;;;25.42;;
21848;SDS011;11089;49.852;19.700;2022-12-18T00:15:52;84.40;;;20.73;;
21848;SDS011;11089;49.852;19.700;2022-12-18T00:18:54;88.53;;;22.53;;
21848;SDS011;11089;49.852;19.700;2022-12-18T00:21:56;80.30;;;21.70;;
21848;SDS011;11089;49.852;19.700;2022-12-18T00:24:58;76.95;;;20.15;;
21848;SDS011;11089;49.852;19.700;2022-12-18T00:27:59;71.97;;;20.60;;
21848;SDS011;11089;49.852;19.700;2022-12-18T00:31:04;77.72;;;19.98;;
21848;SDS011;11089;49.852;19.700;2022-12-18T00:34:06;72.60;;;19.90;;
21848;SDS011;11089;49.852;19.700;2022-12-18T00:37:09;71.43;;;20.65;;
21848;SDS011;11089;49.852;19.700;2022-12-18T00:40:10;82.50;;;22.83;;
21848;SDS011;11089;49.852;19.700;2022-12-18T00:43:12;77.60;;;20.80;;
21848;SDS011;11089;49.852;19.700;2022-12-18T00:46:12;86.82;;;23.80;;
21848;SDS011;11089;49.852;19.700;2022-12-18T00:49:14;75.63;;;21.73;;
21848;SDS011;11089;49.852;19.700;2022-12-18T00:52:16;72.03;;;20.50;;
21848;SDS011;11089;49.852;19.700;2022-12-18T00:55:17;85.05;;;24.38;;
21848;SDS011;11089;49.852;19.700;2022-12-18T00:58:18;87.05;;;25.17;;
21848;SDS011;11089;49.852;19.700;2022-12-18T01:01:19;83.28;;;20.23;;
21848;SDS011;11089;49.852;19.700;2022-12-18T01:04:20;71.25;;;18.85;;
21848;SDS011;11089;49.852;19.700;2022-12-18T01:07:21;65.97;;;17.92;;
21848;SDS011;11089;49.852;19.700;2022-12-18T01:10:22;69.75;;;17.20;;
21848;SDS011;11089;49.852;19.700;2022-12-18T01:13:24;72.00;;;18.80;;
21848;SDS011;11089;49.852;19.700;2022-12-18T01:16:25;67.50;;;18.48;;
21848;SDS011;11089;49.852;19.700;2022-12-18T01:19:26;60.25;;;17.13;;
21848;SDS011;11089;49.852;19.700;2022-12-18T01:22:27;64.97;;;17.30;;
21848;SDS011;11089;49.852;19.700;2022-12-18T01:25:28;66.03;;;17.35;;
21848;SDS011;11089;49.852;19.700;2022-12-18T01:28:28;71.25;;;17.58;;
21848;SDS011;11089;49.852;19.700;2022-12-18T01:31:31;67.07;;;17.13;;
21848;SDS011;11089;49.852;19.700;2022-12-18T01:34:34;60.38;;;16.60;;
21848;SDS011;11089;49.852;19.700;2022-12-18T01:37:36;64.45;;;16.70;;
21848;SDS011;11089;49.852;19.700;2022-12-18T01:40:37;68.47;;;17.23;;
21848;SDS011;11089;49.852;19.700;2022-12-18T01:43:45;56.25;;;16.30;;
21848;SDS011;11089;49.852;19.700;2022-12-18T01:46:51;62.90;;;17.00;;
21848;SDS011;11089;49.852;19.700;2022-12-18T01:49:53;63.17;;;17.05;;
21848;SDS011;11089;49.852;19.700;2022-12-18T01:56:16;65.05;;;16.90;;
21848;SDS011;11089;49.852;19.700;2022-12-18T01:59:19;64.07;;;18.02;;
21848;SDS011;11089;49.852;19.700;2022-12-18T02:02:21;66.88;;;17.95;;
21848;SDS011;11089;49.852;19.700;2022-12-18T02:12:06;65.65;;;19.05;;
21848;SDS011;11089;49.852;19.700;2022-12-18T02:18:38;75.53;;;18.20;;
21848;SDS011;11089;49.852;19.700;2022-12-18T02:21:52;70.10;;;17.55;;
21848;SDS011;11089;49.852;19.700;2022-12-18T02:25:12;67.40;;;17.02;;
21848;SDS011;11089;49.852;19.700;2022-12-18T02:28:14;70.35;;;18.73;;
21848;SDS011;11089;49.852;19.700;2022-12-18T02:31:24;71.43;;;17.50;;
21848;SDS011;11089;49.852;19.700;2022-12-18T02:34:29;68.30;;;17.58;;
21848;SDS011;11089;49.852;19.700;2022-12-18T02:37:33;70.32;;;18.65;;
21848;SDS011;11089;49.852;19.700;2022-12-18T02:40:36;66.57;;;18.07;;
21848;SDS011;11089;49.852;19.700;2022-12-18T02:43:38;76.75;;;18.13;;
21848;SDS011;11089;49.852;19.700;2022-12-18T02:46:41;71.57;;;17.55;;
21848;SDS011;11089;49.852;19.700;2022-12-18T02:49:56;61.05;;;17.27;;
21848;SDS011;11089;49.852;19.700;2022-12-18T02:53:19;64.75;;;16.58;;
21848;SDS011;11089;49.852;19.700;2022-12-18T02:56:28;68.77;;;18.17;;
21848;SDS011;11089;49.852;19.700;2022-12-18T02:59:43;62.92;;;16.83;;
21848;SDS011;11089;49.852;19.700;2022-12-18T03:06:28;60.60;;;16.90;;
21848;SDS011;11089;49.852;19.700;2022-12-18T03:09:40;67.90;;;17.25;;
21848;SDS011;11089;49.852;19.700;2022-12-18T03:12:53;69.32;;;17.52;;
21848;SDS011;11089;49.852;19.700;2022-12-18T03:16:11;70.20;;;18.13;;
21848;SDS011;11089;49.852;19.700;2022-12-18T03:19:22;65.95;;;17.25;;
21848;SDS011;11089;49.852;19.700;2022-12-18T03:22:27;58.05;;;17.23;;
21848;SDS011;11089;49.852;19.700;2022-12-18T03:25:32;68.88;;;17.60;;
21848;SDS011;11089;49.852;19.700;2022-12-18T03:31:53;67.10;;;18.98;;
21848;SDS011;11089;49.852;19.700;2022-12-18T03:34:57;66.73;;;18.20;;
21848;SDS011;11089;49.852;19.700;2022-12-18T03:38:02;67.47;;;17.83;;
21848;SDS011;11089;49.852;19.700;2022-12-18T03:41:10;57.47;;;16.50;;
21848;SDS011;11089;49.852;19.700;2022-12-18T03:51:05;66.00;;;18.08;;
21848;SDS011;11089;49.852;19.700;2022-12-18T03:54:15;67.63;;;17.20;;
21848;SDS011;11089;49.852;19.700;2022-12-18T03:57:19;60.03;;;16.48;;
21848;SDS011;11089;49.852;19.700;2022-12-18T04:00:22;69.65;;;18.13;;
21848;SDS011;11089;49.852;19.700;2022-12-18T04:03:23;63.83;;;17.20;;
21848;SDS011;11089;49.852;19.700;2022-12-18T04:06:24;63.22;;;16.90;;
21848;SDS011;11089;49.852;19.700;2022-12-18T04:09:26;65.18;;;18.05;;
21848;SDS011;11089;49.852;19.700;2022-12-18T04:12:28;68.40;;;18.90;;
21848;SDS011;11089;49.852;19.700;2022-12-18T04:15:31;74.13;;;19.77;;
21848;SDS011;11089;49.852;19.700;2022-12-18T04:18:35;70.90;;;17.65;;
21848;SDS011;11089;49.852;19.700;2022-12-18T04:21:36;66.83;;;17.57;;
21848;SDS011;11089;49.852;19.700;2022-12-18T04:24:37;72.15;;;18.65;;
21848;SDS011;11089;49.852;19.700;2022-12-18T04:27:38;70.85;;;19.38;;
21848;SDS011;11089;49.852;19.700;2022-12-18T04:30:39;67.75;;;18.73;;
21848;SDS011;11089;49.852;19.700;2022-12-18T04:33:40;78.18;;;19.70;;
21848;SDS011;11089;49.852;19.700;2022-12-18T04:36:41;108.22;;;27.42;;
21848;SDS011;11089;49.852;19.700;2022-12-18T04:39:42;102.20;;;27.63;;
21848;SDS011;11089;49.852;19.700;2022-12-18T04:42:42;85.72;;;21.33;;
21848;SDS011;11089;49.852;19.700;2022-12-18T04:45:43;68.80;;;18.02;;
21848;SDS011;11089;49.852;19.700;2022-12-18T04:48:45;76.38;;;17.98;;
21848;SDS011;11089;49.852;19.700;2022-12-18T04:51:47;79.65;;;19.25;;
21848;SDS011;11089;49.852;19.700;2022-12-18T04:54:48;71.15;;;17.92;;
21848;SDS011;11089;49.852;19.700;2022-12-18T04:57:48;69.50;;;16.85;;
21848;SDS011;11089;49.852;19.700;2022-12-18T05:00:49;69.90;;;18.70;;
21848;SDS011;11089;49.852;19.700;2022-12-18T05:03:51;77.07;;;20.20;;
21848;SDS011;11089;49.852;19.700;2022-12-18T05:06:52;73.17;;;19.00;;
21848;SDS011;11089;49.852;19.700;2022-12-18T05:09:53;73.37;;;19.90;;
21848;SDS011;11089;49.852;19.700;2022-12-18T05:12:53;74.95;;;20.00;;
21848;SDS011;11089;49.852;19.700;2022-12-18T05:16:01;66.00;;;18.20;;
21848;SDS011;11089;49.852;19.700;2022-12-18T05:19:02;74.75;;;18.15;;
21848;SDS011;11089;49.852;19.700;2022-12-18T05:22:03;68.23;;;16.80;;
21848;SDS011;11089;49.852;19.700;2022-12-18T05:25:04;59.40;;;16.67;;
21848;SDS011;11089;49.852;19.700;2022-12-18T05:28:05;59.07;;;17.10;;
21848;SDS011;11089;49.852;19.700;2022-12-18T05:31:06;60.70;;;17.17;;
21848;SDS011;11089;49.852;19.700;2022-12-18T05:34:07;64.05;;;17.52;;
21848;SDS011;11089;49.852;19.700;2022-12-18T05:37:08;60.08;;;17.33;;
21848;SDS011;11089;49.852;19.700;2022-12-18T05:40:09;67.15;;;16.58;;
21848;SDS011;11089;49.852;19.700;2022-12-18T05:43:11;64.22;;;18.60;;
21848;SDS011;11089;49.852;19.700;2022-12-18T05:46:13;68.43;;;17.67;;
21848;SDS011;11089;49.852;19.700;2022-12-18T05:49:16;67.18;;;18.40;;
21848;SDS011;11089;49.852;19.700;2022-12-18T05:52:17;73.47;;;19.43;;
21848;SDS011;11089;49.852;19.700;2022-12-18T05:55:18;65.97;;;16.80;;
21848;SDS011;11089;49.852;19.700;2022-12-18T05:58:19;70.10;;;16.98;;
21848;SDS011;11089;49.852;19.700;2022-12-18T06:01:23;67.00;;;17.08;;
21848;SDS011;11089;49.852;19.700;2022-12-18T06:04:27;76.40;;;18.63;;
21848;SDS011;11089;49.852;19.700;2022-12-18T06:07:28;61.65;;;17.70;;
21848;SDS011;11089;49.852;19.700;2022-12-18T06:10:29;65.32;;;17.75;;
21848;SDS011;11089;49.852;19.700;2022-12-18T06:13:31;73.18;;;19.58;;
21848;SDS011;11089;49.852;19.700;2022-12-18T06:16:32;73.05;;;19.35;;
21848;SDS011;11089;49.852;19.700;2022-12-18T06:19:33;68.30;;;18.67;;
21848;SDS011;11089;49.852;19.700;2022-12-18T06:22:34;73.78;;;19.90;;
21848;SDS011;11089;49.852;19.700;2022-12-18T06:25:37;78.33;;;22.87;;
21848;SDS011;11089;49.852;19.700;2022-12-18T06:28:39;65.93;;;19.65;;
21848;SDS011;11089;49.852;19.700;2022-12-18T06:31:40;60.45;;;18.50;;
21848;SDS011;11089;49.852;19.700;2022-12-18T06:34:41;60.60;;;16.85;;
21848;SDS011;11089;49.852;19.700;2022-12-18T06:37:42;62.60;;;16.83;;
21848;SDS011;11089;49.852;19.700;2022-12-18T06:40:43;57.00;;;16.63;;
21848;SDS011;11089;49.852;19.700;2022-12-18T06:43:44;55.85;;;16.15;;
21848;SDS011;11089;49.852;19.700;2022-12-18T06:46:45;63.58;;;16.15;;
21848;SDS011;11089;49.852;19.700;2022-12-18T06:49:46;57.67;;;16.00;;
21848;SDS011;11089;49.852;19.700;2022-12-18T06:52:47;50.53;;;14.52;;
21848;SDS011;11089;49.852;19.700;2022-12-18T06:55:48;55.47;;;14.63;;
21848;SDS011;11089;49.852;19.700;2022-12-18T06:58:49;61.45;;;17.33;;
21848;SDS011;11089;49.852;19.700;2022-12-18T07:01:50;64.80;;;15.85;;
21848;SDS011;11089;49.852;19.700;2022-12-18T07:04:51;59.00;;;16.05;;
21848;SDS011;11089;49.852;19.700;2022-12-18T07:07:51;54.75;;;15.93;;
21848;SDS011;11089;49.852;19.700;2022-12-18T07:10:52;64.60;;;16.75;;
21848;SDS011;11089;49.852;19.700;2022-12-18T07:13:54;62.83;;;17.77;;
21848;SDS011;11089;49.852;19.700;2022-12-18T07:16:55;54.92;;;15.73;;
21848;SDS011;11089;49.852;19.700;2022-12-18T07:19:56;62.80;;;16.83;;
21848;SDS011;11089;49.852;19.700;2022-12-18T07:22:56;62.80;;;16.90;;
21848;SDS011;11089;49.852;19.700;2022-12-18T07:26:00;59.28;;;15.98;;
21848;SDS011;11089;49.852;19.700;2022-12-18T07:29:08;62.17;;;17.02;;
21848;SDS011;11089;49.852;19.700;2022-12-18T07:32:09;62.55;;;16.48;;
21848;SDS011;11089;49.852;19.700;2022-12-18T07:35:10;65.20;;;17.95;;
21848;SDS011;11089;49.852;19.700;2022-12-18T07:38:11;66.70;;;16.30;;
21848;SDS011;11089;49.852;19.700;2022-12-18T07:41:13;70.30;;;18.23;;
21848;SDS011;11089;49.852;19.700;2022-12-18T07:44:14;72.13;;;17.83;;
21848;SDS011;11089;49.852;19.700;2022-12-18T07:47:15;63.97;;;17.52;;
21848;SDS011;11089;49.852;19.700;2022-12-18T07:50:16;64.43;;;17.43;;
21848;SDS011;11089;49.852;19.700;2022-12-18T07:53:17;59.70;;;18.15;;
21848;SDS011;11089;49.852;19.700;2022-12-18T07:56:18;73.53;;;18.08;;
21848;SDS011;11089;49.852;19.700;2022-12-18T07:59:19;66.18;;;18.60;;
21848;SDS011;11089;49.852;19.700;2022-12-18T08:02:20;61.38;;;17.02;;
21848;SDS011;11089;49.852;19.700;2022-12-18T08:05:21;64.93;;;17.52;;
21848;SDS011;11089;49.852;19.700;2022-12-18T08:08:22;64.20;;;16.65;;
21848;SDS011;11089;49.852;19.700;2022-12-18T08:11:24;63.60;;;17.73;;
21848;SDS011;11089;49.852;19.700;2022-12-18T08:14:26;70.25;;;20.00;;
21848;SDS011;11089;49.852;19.700;2022-12-18T08:17:27;62.38;;;17.83;;
21848;SDS011;11089;49.852;19.700;2022-12-18T08:20:28;67.63;;;18.70;;
21848;SDS011;11089;49.852;19.700;2022-12-18T08:23:29;67.95;;;18.63;;
21848;SDS011;11089;49.852;19.700;2022-12-18T08:26:30;59.10;;;17.33;;
21848;SDS011;11089;49.852;19.700;2022-12-18T08:29:31;64.43;;;18.93;;
21848;SDS011;11089;49.852;19.700;2022-12-18T08:32:33;58.95;;;16.70;;
21848;SDS011;11089;49.852;19.700;2022-12-18T08:35:35;66.43;;;16.27;;
21848;SDS011;11089;49.852;19.700;2022-12-18T08:38:36;58.00;;;17.13;;
21848;SDS011;11089;49.852;19.700;2022-12-18T08:41:37;62.40;;;16.67;;
21848;SDS011;11089;49.852;19.700;2022-12-18T08:44:38;61.58;;;16.25;;
21848;SDS011;11089;49.852;19.700;2022-12-18T08:47:39;56.17;;;17.45;;
21848;SDS011;11089;49.852;19.700;2022-12-18T08:50:40;66.70;;;19.20;;
21848;SDS011;11089;49.852;19.700;2022-12-18T08:53:41;69.18;;;19.10;;
21848;SDS011;11089;49.852;19.700;2022-12-18T08:56:42;65.07;;;18.63;;
21848;SDS011;11089;49.852;19.700;2022-12-18T08:59:43;57.53;;;17.50;;
21848;SDS011;11089;49.852;19.700;2022-12-18T09:02:44;63.47;;;17.17;;
21848;SDS011;11089;49.852;19.700;2022-12-18T09:05:45;67.03;;;19.70;;
21848;SDS011;11089;49.852;19.700;2022-12-18T09:08:47;75.97;;;21.50;;
21848;SDS011;11089;49.852;19.700;2022-12-18T09:11:48;54.28;;;17.23;;
21848;SDS011;11089;49.852;19.700;2022-12-18T09:14:48;55.97;;;16.08;;
21848;SDS011;11089;49.852;19.700;2022-12-18T09:17:49;58.22;;;17.33;;
21848;SDS011;11089;49.852;19.700;2022-12-18T09:20:52;60.28;;;18.25;;
21848;SDS011;11089;49.852;19.700;2022-12-18T09:23:54;57.00;;;16.77;;
21848;SDS011;11089;49.852;19.700;2022-12-18T09:26:55;56.38;;;16.60;;
21848;SDS011;11089;49.852;19.700;2022-12-18T09:29:56;61.72;;;17.20;;
21848;SDS011;11089;49.852;19.700;2022-12-18T09:32:57;60.88;;;17.63;;
21848;SDS011;11089;49.852;19.700;2022-12-18T09:36:00;58.63;;;16.17;;
21848;SDS011;11089;49.852;19.700;2022-12-18T09:39:03;58.90;;;17.65;;
21848;SDS011;11089;49.852;19.700;2022-12-18T09:42:04;65.43;;;18.30;;
21848;SDS011;11089;49.852;19.700;2022-12-18T09:45:07;55.80;;;17.73;;
21848;SDS011;11089;49.852;19.700;2022-12-18T09:48:15;58.60;;;18.02;;
21848;SDS011;11089;49.852;19.700;2022-12-18T09:51:35;55.65;;;16.42;;
21848;SDS011;11089;49.852;19.700;2022-12-18T09:58:20;50.70;;;15.55;;
21848;SDS011;11089;49.852;19.700;2022-12-18T10:01:28;50.97;;;16.40;;
21848;SDS011;11089;49.852;19.700;2022-12-18T10:04:32;52.03;;;16.70;;
21848;SDS011;11089;49.852;19.700;2022-12-18T10:10:54;52.40;;;18.35;;
21848;SDS011;11089;49.852;19.700;2022-12-18T10:14:05;58.67;;;18.85;;
21848;SDS011;11089;49.852;19.700;2022-12-18T10:17:26;48.03;;;14.90;;
21848;SDS011;11089;49.852;19.700;2022-12-18T10:20:45;46.13;;;14.60;;
21848;SDS011;11089;49.852;19.700;2022-12-18T10:30:17;49.90;;;15.85;;
21848;SDS011;11089;49.852;19.700;2022-12-18T10:33:21;42.85;;;14.57;;
21848;SDS011;11089;49.852;19.700;2022-12-18T10:36:24;44.42;;;15.60;;
21848;SDS011;11089;49.852;19.700;2022-12-18T10:39:25;43.08;;;15.45;;
21848;SDS011;11089;49.852;19.700;2022-12-18T10:42:26;48.42;;;15.48;;
21848;SDS011;11089;49.852;19.700;2022-12-18T10:45:27;43.15;;;14.27;;
21848;SDS011;11089;49.852;19.700;2022-12-18T10:48:28;36.15;;;12.60;;
21848;SDS011;11089;49.852;19.700;2022-12-18T10:51:34;37.58;;;11.75;;
21848;SDS011;11089;49.852;19.700;2022-12-18T10:54:37;37.33;;;12.73;;
21848;SDS011;11089;49.852;19.700;2022-12-18T10:57:39;42.38;;;14.63;;
21848;SDS011;11089;49.852;19.700;2022-12-18T11:00:41;43.20;;;15.27;;
21848;SDS011;11089;49.852;19.700;2022-12-18T11:03:46;55.78;;;18.52;;
21848;SDS011;11089;49.852;19.700;2022-12-18T11:06:54;49.17;;;16.30;;
21848;SDS011;11089;49.852;19.700;2022-12-18T11:10:00;35.88;;;12.63;;
21848;SDS011;11089;49.852;19.700;2022-12-18T11:13:09;34.95;;;11.55;;
21848;SDS011;11089;49.852;19.700;2022-12-18T11:16:24;25.60;;;10.25;;
21848;SDS011;11089;49.852;19.700;2022-12-18T11:19:30;28.00;;;10.80;;
21848;SDS011;11089;49.852;19.700;2022-12-18T11:22:36;26.20;;;9.23;;
21848;SDS011;11089;49.852;19.700;2022-12-18T11:25:38;28.90;;;9.85;;
21848;SDS011;11089;49.852;19.700;2022-12-18T11:28:51;28.15;;;10.02;;
21848;SDS011;11089;49.852;19.700;2022-12-18T11:35:30;34.10;;;10.75;;
21848;SDS011;11089;49.852;19.700;2022-12-18T11:38:37;31.83;;;10.82;;
21848;SDS011;11089;49.852;19.700;2022-12-18T11:41:47;30.25;;;10.35;;
21848;SDS011;11089;49.852;19.700;2022-12-18T11:48:21;34.03;;;12.20;;
21848;SDS011;11089;49.852;19.700;2022-12-18T11:51:35;28.75;;;10.82;;
21848;SDS011;11089;49.852;19.700;2022-12-18T11:54:42;31.35;;;11.95;;
21848;SDS011;11089;49.852;19.700;2022-12-18T12:00:56;35.63;;;11.43;;
21848;SDS011;11089;49.852;19.700;2022-12-18T12:04:53;34.05;;;11.52;;
21848;SDS011;11089;49.852;19.700;2022-12-18T12:10:53;36.08;;;12.88;;
21848;SDS011;11089;49.852;19.700;2022-12-18T12:34:25;34.97;;;12.35;;
21848;SDS011;11089;49.852;19.700;2022-12-18T12:38:35;34.38;;;12.90;;
21848;SDS011;11089;49.852;19.700;2022-12-18T12:41:08;37.83;;;12.60;;
21848;SDS011;11089;49.852;19.700;2022-12-18T12:44:37;33.70;;;12.13;;
21848;SDS011;11089;49.852;19.700;2022-12-18T12:47:44;34.17;;;13.00;;
21848;SDS011;11089;49.852;19.700;2022-12-18T12:50:48;37.08;;;12.48;;
21848;SDS011;11089;49.852;19.700;2022-12-18T12:53:50;35.40;;;12.35;;
21848;SDS011;11089;49.852;19.700;2022-12-18T12:57:06;32.70;;;12.13;;
21848;SDS011;11089;49.852;19.700;2022-12-18T13:00:19;38.08;;;13.77;;
21848;SDS011;11089;49.852;19.700;2022-12-18T13:06:39;32.45;;;13.52;;
21848;SDS011;11089;49.852;19.700;2022-12-18T13:13:12;37.63;;;13.20;;
21848;SDS011;11089;49.852;19.700;2022-12-18T13:16:18;36.58;;;13.38;;
21848;SDS011;11089;49.852;19.700;2022-12-18T13:19:22;37.70;;;13.57;;
21848;SDS011;11089;49.852;19.700;2022-12-18T13:25:46;41.00;;;13.38;;
21848;SDS011;11089;49.852;19.700;2022-12-18T13:34:49;43.08;;;14.60;;
21848;SDS011;11089;49.852;19.700;2022-12-18T13:41:31;43.05;;;14.98;;
21848;SDS011;11089;49.852;19.700;2022-12-18T13:44:35;37.13;;;14.80;;
21848;SDS011;11089;49.852;19.700;2022-12-18T13:47:40;38.83;;;13.75;;
21848;SDS011;11089;49.852;19.700;2022-12-18T13:50:48;35.80;;;13.38;;
21848;SDS011;11089;49.852;19.700;2022-12-18T13:57:28;37.08;;;12.50;;
21848;SDS011;11089;49.852;19.700;2022-12-18T14:00:31;37.38;;;13.60;;
21848;SDS011;11089;49.852;19.700;2022-12-18T14:03:32;42.00;;;13.80;;
21848;SDS011;11089;49.852;19.700;2022-12-18T14:06:33;39.90;;;13.70;;
21848;SDS011;11089;49.852;19.700;2022-12-18T14:09:45;41.95;;;14.65;;
21848;SDS011;11089;49.852;19.700;2022-12-18T14:12:49;35.33;;;13.25;;
21848;SDS011;11089;49.852;19.700;2022-12-18T14:15:57;39.28;;;13.60;;
21848;SDS011;11089;49.852;19.700;2022-12-18T14:19:01;36.08;;;13.48;;
21848;SDS011;11089;49.852;19.700;2022-12-18T14:22:03;40.00;;;13.40;;
21848;SDS011;11089;49.852;19.700;2022-12-18T14:25:46;42.15;;;14.18;;
21848;SDS011;11089;49.852;19.700;2022-12-18T14:28:28;37.20;;;13.38;;
21848;SDS011;11089;49.852;19.700;2022-12-18T14:31:30;44.17;;;14.45;;
21848;SDS011;11089;49.852;19.700;2022-12-18T14:34:31;35.97;;;14.80;;
21848;SDS011;11089;49.852;19.700;2022-12-18T14:37:32;40.53;;;14.65;;
21848;SDS011;11089;49.852;19.700;2022-12-18T14:40:33;33.88;;;12.40;;
21848;SDS011;11089;49.852;19.700;2022-12-18T14:43:35;36.85;;;12.80;;
21848;SDS011;11089;49.852;19.700;2022-12-18T14:46:41;34.72;;;12.27;;
21848;SDS011;11089;49.852;19.700;2022-12-18T14:49:44;37.20;;;13.50;;
21848;SDS011;11089;49.852;19.700;2022-12-18T14:52:45;37.05;;;12.70;;
21848;SDS011;11089;49.852;19.700;2022-12-18T14:55:46;39.92;;;13.90;;
21848;SDS011;11089;49.852;19.700;2022-12-18T14:58:49;36.95;;;12.73;;
21848;SDS011;11089;49.852;19.700;2022-12-18T15:05:19;34.03;;;12.57;;
21848;SDS011;11089;49.852;19.700;2022-12-18T15:08:35;39.50;;;12.43;;
21848;SDS011;11089;49.852;19.700;2022-12-18T15:14:40;40.40;;;13.07;;
21848;SDS011;11089;49.852;19.700;2022-12-18T15:17:42;39.58;;;13.00;;
21848;SDS011;11089;49.852;19.700;2022-12-18T15:20:47;41.03;;;13.13;;
21848;SDS011;11089;49.852;19.700;2022-12-18T15:24:02;39.83;;;13.07;;
21848;SDS011;11089;49.852;19.700;2022-12-18T15:27:03;37.05;;;13.13;;
21848;SDS011;11089;49.852;19.700;2022-12-18T15:33:17;63.38;;;22.30;;
21848;SDS011;11089;49.852;19.700;2022-12-18T15:36:25;63.50;;;19.67;;
21848;SDS011;11089;49.852;19.700;2022-12-18T15:39:30;59.38;;;21.23;;
21848;SDS011;11089;49.852;19.700;2022-12-18T15:42:31;55.95;;;20.80;;
21848;SDS011;11089;49.852;19.700;2022-12-18T15:45:46;69.50;;;23.42;;
21848;SDS011;11089;49.852;19.700;2022-12-18T15:48:48;76.57;;;27.33;;
21848;SDS011;11089;49.852;19.700;2022-12-18T15:51:54;80.82;;;27.85;;
21848;SDS011;11089;49.852;19.700;2022-12-18T15:54:58;87.13;;;29.40;;
21848;SDS011;11089;49.852;19.700;2022-12-18T15:58:13;99.05;;;33.38;;
21848;SDS011;11089;49.852;19.700;2022-12-18T16:01:25;81.88;;;28.65;;
21848;SDS011;11089;49.852;19.700;2022-12-18T16:04:27;99.33;;;31.83;;
21848;SDS011;11089;49.852;19.700;2022-12-18T16:07:28;99.00;;;30.00;;
21848;SDS011;11089;49.852;19.700;2022-12-18T16:10:29;78.68;;;26.65;;
21848;SDS011;11089;49.852;19.700;2022-12-18T16:13:30;88.22;;;30.10;;
21848;SDS011;11089;49.852;19.700;2022-12-18T16:16:31;82.28;;;28.45;;
21848;SDS011;11089;49.852;19.700;2022-12-18T16:19:32;93.07;;;28.08;;
21848;SDS011;11089;49.852;19.700;2022-12-18T16:22:33;84.25;;;28.48;;
21848;SDS011;11089;49.852;19.700;2022-12-18T16:25:34;94.77;;;30.83;;
21848;SDS011;11089;49.852;19.700;2022-12-18T16:28:35;88.60;;;30.57;;
21848;SDS011;11089;49.852;19.700;2022-12-18T16:31:37;78.97;;;26.90;;
21848;SDS011;11089;49.852;19.700;2022-12-18T16:34:38;76.07;;;27.20;;
21848;SDS011;11089;49.852;19.700;2022-12-18T16:37:39;86.97;;;27.97;;
21848;SDS011;11089;49.852;19.700;2022-12-18T16:40:40;86.63;;;27.07;;
21848;SDS011;11089;49.852;19.700;2022-12-18T16:44:02;77.07;;;26.73;;
21848;SDS011;11089;49.852;19.700;2022-12-18T16:47:03;81.37;;;25.83;;
21848;SDS011;11089;49.852;19.700;2022-12-18T16:50:04;80.10;;;27.10;;
21848;SDS011;11089;49.852;19.700;2022-12-18T16:53:06;72.23;;;25.90;;
21848;SDS011;11089;49.852;19.700;2022-12-18T16:56:07;82.77;;;26.50;;
21848;SDS011;11089;49.852;19.700;2022-12-18T16:59:11;72.30;;;24.50;;
21848;SDS011;11089;49.852;19.700;2022-12-18T17:02:13;70.73;;;22.67;;
21848;SDS011;11089;49.852;19.700;2022-12-18T17:05:16;65.47;;;20.95;;
21848;SDS011;11089;49.852;19.700;2022-12-18T17:08:17;60.40;;;20.67;;
21848;SDS011;11089;49.852;19.700;2022-12-18T17:11:18;61.60;;;18.77;;
21848;SDS011;11089;49.852;19.700;2022-12-18T17:14:20;53.27;;;16.63;;
21848;SDS011;11089;49.852;19.700;2022-12-18T17:17:22;46.83;;;14.93;;
21848;SDS011;11089;49.852;19.700;2022-12-18T17:20:23;51.90;;;16.20;;
21848;SDS011;11089;49.852;19.700;2022-12-18T17:23:24;53.33;;;15.17;;
21848;SDS011;11089;49.852;19.700;2022-12-18T17:26:26;48.97;;;14.17;;
21848;SDS011;11089;49.852;19.700;2022-12-18T17:29:27;43.77;;;13.43;;
21848;SDS011;11089;49.852;19.700;2022-12-18T17:32:29;46.53;;;14.40;;
21848;SDS011;11089;49.852;19.700;2022-12-18T17:35:29;41.87;;;12.10;;
21848;SDS011;11089;49.852;19.700;2022-12-18T17:38:30;49.57;;;13.60;;
21848;SDS011;11089;49.852;19.700;2022-12-18T17:41:32;44.57;;;13.53;;
21848;SDS011;11089;49.852;19.700;2022-12-18T17:44:34;47.50;;;13.53;;
21848;SDS011;11089;49.852;19.700;2022-12-18T17:47:36;46.13;;;13.73;;
21848;SDS011;11089;49.852;19.700;2022-12-18T17:50:37;47.30;;;13.40;;
21848;SDS011;11089;49.852;19.700;2022-12-18T17:53:38;41.23;;;13.00;;
21848;SDS011;11089;49.852;19.700;2022-12-18T17:56:39;51.57;;;15.00;;
21848;SDS011;11089;49.852;19.700;2022-12-18T17:59:40;48.67;;;14.50;;
21848;SDS011;11089;49.852;19.700;2022-12-18T18:02:41;52.40;;;15.13;;
21848;SDS011;11089;49.852;19.700;2022-12-18T18:05:42;48.50;;;14.00;;
21848;SDS011;11089;49.852;19.700;2022-12-18T18:08:43;53.90;;;16.00;;
21848;SDS011;11089;49.852;19.700;2022-12-18T18:11:44;69.23;;;20.07;;
21848;SDS011;11089;49.852;19.700;2022-12-18T18:14:59;66.27;;;19.23;;
21848;SDS011;11089;49.852;19.700;2022-12-18T18:18:00;58.10;;;16.80;;
21848;SDS011;11089;49.852;19.700;2022-12-18T18:21:04;61.97;;;17.43;;
21848;SDS011;11089;49.852;19.700;2022-12-18T18:24:09;68.63;;;20.23;;
21848;SDS011;11089;49.852;19.700;2022-12-18T18:27:11;75.77;;;22.43;;
21848;SDS011;11089;49.852;19.700;2022-12-18T18:30:12;64.10;;;19.93;;
21848;SDS011;11089;49.852;19.700;2022-12-18T18:33:14;71.77;;;20.00;;
21848;SDS011;11089;49.852;19.700;2022-12-18T18:36:15;61.07;;;19.63;;
21848;SDS011;11089;49.852;19.700;2022-12-18T18:39:16;67.50;;;21.80;;
21848;SDS011;11089;49.852;19.700;2022-12-18T18:42:17;71.93;;;21.30;;
21848;SDS011;11089;49.852;19.700;2022-12-18T18:45:18;71.60;;;20.97;;
21848;SDS011;11089;49.852;19.700;2022-12-18T18:48:19;70.30;;;21.50;;
21848;SDS011;11089;49.852;19.700;2022-12-18T18:51:20;68.67;;;20.10;;
21848;SDS011;11089;49.852;19.700;2022-12-18T18:54:22;73.47;;;21.17;;
21848;SDS011;11089;49.852;19.700;2022-12-18T18:57:23;73.70;;;21.37;;
21848;SDS011;11089;49.852;19.700;2022-12-18T19:00:24;73.07;;;20.67;;
21848;SDS011;11089;49.852;19.700;2022-12-18T19:03:25;71.13;;;19.90;;
21848;SDS011;11089;49.852;19.700;2022-12-18T19:06:27;74.87;;;21.00;;
21848;SDS011;11089;49.852;19.700;2022-12-18T19:09:28;66.80;;;20.07;;
21848;SDS011;11089;49.852;19.700;2022-12-18T19:12:30;61.00;;;18.80;;
21848;SDS011;11089;49.852;19.700;2022-12-18T19:15:46;57.53;;;17.60;;
21848;SDS011;11089;49.852;19.700;2022-12-18T19:18:48;62.00;;;18.77;;
21848;SDS011;11089;49.852;19.700;2022-12-18T19:21:49;58.80;;;17.97;;
21848;SDS011;11089;49.852;19.700;2022-12-18T19:24:50;63.67;;;18.40;;